Time;durP1;ratioP1;P1;durP2;ratioP2;P2;SDS_P1;SDS_P2;PMS_P1;PMS_P2;Temp;Humidity;BMP_temperature;BMP_pressure;BME280_temperature;BME280_humidity;BME280_pressure;Samples;Min_cycle;Max_cycle;Signal;HPM_P1;HPM_P2
2022/03/14 00:00:43;;;;;;;4.65;3.13;;;;;;;13.54;47.95;101643.03;5164542;28;20420;-59
2022/03/14 00:03:16;;;;;;;3.60;3.00;;;;;;;13.64;47.97;101672.97;5166233;28;20415;-58
2022/03/14 00:05:49;;;;;;;3.70;2.55;;;;;;;13.62;48.08;101666.97;5165547;28;20428;-60
2022/03/14 00:08:24;;;;;;;3.23;2.90;;;;;;;13.57;48.27;101667.44;5163931;28;20420;-56
2022/03/14 00:10:56;;;;;;;3.78;2.97;;;;;;;13.55;48.35;101665.91;5162472;28;20787;-53
2022/03/14 00:13:29;;;;;;;3.35;2.53;;;;;;;13.54;48.18;101667.75;5166722;28;20492;-55
2022/03/14 00:16:03;;;;;;;4.38;3.05;;;;;;;13.56;48.23;101662.25;5166857;28;20456;-60
2022/03/14 00:18:37;;;;;;;3.65;3.00;;;;;;;13.48;48.18;101660.38;5167561;28;20830;-53
2022/03/14 00:21:10;;;;;;;4.65;3.30;;;;;;;13.58;48.18;101668.28;5165390;28;20813;-56
2022/03/14 00:23:44;;;;;;;4.13;3.03;;;;;;;13.54;48.36;101661.59;5155194;28;20548;-53
2022/03/14 00:26:17;;;;;;;3.10;2.80;;;;;;;13.25;48.22;101622.78;5161856;28;20829;-56
2022/03/14 00:28:50;;;;;;;4.47;3.03;;;;;;;13.53;48.42;101671.38;5163313;28;20409;-56
2022/03/14 00:31:24;;;;;;;3.83;2.85;;;;;;;13.49;48.23;101666.50;5157164;28;20503;-53
2022/03/14 00:33:56;;;;;;;4.27;2.90;;;;;;;13.46;48.29;101675.59;5166782;28;20504;-55
2022/03/14 00:36:29;;;;;;;3.47;2.75;;;;;;;13.41;48.48;101674.34;5166516;28;20464;-58
2022/03/14 00:39:01;;;;;;;3.65;3.10;;;;;;;13.33;48.67;101675.94;5162971;28;20438;-55
2022/03/14 00:41:34;;;;;;;4.32;3.60;;;;;;;13.30;48.72;101681.53;5166150;28;20479;-60
2022/03/14 00:44:06;;;;;;;3.35;3.05;;;;;;;13.23;48.88;101685.75;5167269;28;20413;-52
2022/03/14 00:46:41;;;;;;;3.28;2.97;;;;;;;13.15;48.85;101682.97;5165905;28;20951;-55
2022/03/14 00:49:13;;;;;;;3.15;2.85;;;;;;;13.15;48.96;101688.28;5161282;28;20412;-55
2022/03/14 00:51:46;;;;;;;4.27;3.30;;;;;;;13.11;49.14;101692.22;5162317;28;20504;-60
2022/03/14 00:54:18;;;;;;;4.90;3.10;;;;;;;13.09;49.06;101687.03;5177638;28;20443;-55
2022/03/14 00:56:53;;;;;;;3.75;2.55;;;;;;;13.09;49.09;101695.00;5180143;28;20841;-55
2022/03/14 00:59:27;;;;;;;3.83;3.13;;;;;;;13.09;49.15;101684.38;5191182;28;20427;-59
2022/03/14 01:02:01;;;;;;;2.90;2.60;;;;;;;13.08;49.23;101700.47;5187867;28;20502;-57
2022/03/14 01:04:33;;;;;;;2.90;2.60;;;;;;;13.06;49.32;101700.59;5190734;28;20419;-54
2022/03/14 01:07:06;;;;;;;2.87;2.57;;;;;;;13.07;49.37;101704.09;5187992;28;20432;-55
2022/03/14 01:09:38;;;;;;;2.78;2.38;;;;;;;13.08;49.46;101709.25;5188475;28;20857;-61
2022/03/14 01:12:11;;;;;;;3.45;2.65;;;;;;;13.11;49.43;101713.44;5188339;28;20433;-55
2022/03/14 01:14:44;;;;;;;3.83;2.83;;;;;;;13.16;49.30;101713.81;5187333;28;20411;-59
2022/03/14 01:17:18;;;;;;;5.18;3.05;;;;;;;13.14;49.32;101715.78;5190645;28;20981;-56
2022/03/14 01:19:50;;;;;;;3.40;3.10;;;;;;;13.14;49.58;101723.75;5189623;28;20423;-60
2022/03/14 01:22:23;;;;;;;2.75;2.55;;;;;;;13.14;49.49;101721.09;5188680;28;20435;-55
2022/03/14 01:24:55;;;;;;;3.10;2.83;;;;;;;13.14;49.57;101729.06;5187759;28;20426;-55
2022/03/14 01:27:28;;;;;;;3.40;3.10;;;;;;;13.16;49.58;101742.97;5188230;28;20423;-56
2022/03/14 01:30:00;;;;;;;3.63;2.90;;;;;;;13.13;49.54;101732.66;5189628;28;20425;-54
2022/03/14 01:32:34;;;;;;;3.22;2.92;;;;;;;12.92;49.61;101699.25;5188045;28;20423;-54
2022/03/14 01:35:07;;;;;;;3.40;2.60;;;;;;;13.11;49.56;101739.94;5188260;28;20427;-55
2022/03/14 01:37:39;;;;;;;4.00;2.77;;;;;;;13.10;49.70;101738.25;5186752;28;20454;-59
2022/03/14 01:40:14;;;;;;;4.00;3.25;;;;;;;13.13;49.68;101740.63;5188154;28;20422;-55
2022/03/14 01:42:49;;;;;;;3.00;2.67;;;;;;;13.13;49.65;101732.66;5173548;28;20493;-57
2022/03/14 01:45:23;;;;;;;4.40;3.10;;;;;;;13.13;49.60;101743.28;5187940;28;20891;-57
2022/03/14 01:47:56;;;;;;;4.97;3.85;;;;;;;13.07;50.05;101733.28;5189253;28;20421;-59
2022/03/14 01:50:29;;;;;;;6.00;4.72;;;;;;;13.08;49.85;101748.19;5186877;28;20490;-56
2022/03/14 01:53:01;;;;;;;5.53;4.63;;;;;;;13.09;49.85;101748.03;5183577;28;20474;-55
2022/03/14 01:55:34;;;;;;;7.43;6.10;;;;;;;13.06;49.83;101748.31;5169508;28;20491;-58
2022/03/14 01:58:07;;;;;;;4.28;3.88;;;;;;;13.05;49.93;101729.91;5168285;28;20409;-54
2022/03/14 02:00:39;;;;;;;4.30;3.43;;;;;;;12.98;50.18;101734.97;5168780;28;20499;-57
2022/03/14 02:03:13;;;;;;;4.63;3.10;;;;;;;12.93;50.13;101732.72;5167920;28;21362;-53
2022/03/14 02:05:47;;;;;;;3.42;2.90;;;;;;;12.82;49.99;101730.25;5164151;28;20444;-54
2022/03/14 02:08:19;;;;;;;4.20;3.37;;;;;;;12.85;50.26;101739.72;5169601;28;20427;-56
2022/03/14 02:10:52;;;;;;;4.68;3.28;;;;;;;12.79;50.47;101742.94;5163086;28;20526;-54
2022/03/14 02:13:24;;;;;;;3.97;3.58;;;;;;;12.74;50.43;101739.91;5169220;28;20973;-56
2022/03/14 02:15:57;;;;;;;4.55;3.58;;;;;;;12.75;50.47;101746.84;5170096;28;20500;-55
2022/03/14 02:18:31;;;;;;;3.87;3.43;;;;;;;12.75;50.45;101749.50;5167529;28;20468;-55
2022/03/14 02:21:05;;;;;;;4.07;3.17;;;;;;;12.72;50.44;101755.91;5169894;28;20404;-55
2022/03/14 02:23:38;;;;;;;4.78;3.42;;;;;;;12.61;50.74;101754.28;5168614;28;20455;-56
2022/03/14 02:26:10;;;;;;;3.58;3.10;;;;;;;12.67;50.67;101774.91;5167773;28;20484;-56
2022/03/14 02:28:43;;;;;;;3.43;3.13;;;;;;;12.60;50.72;101757.06;5167087;28;20560;-54
2022/03/14 02:31:15;;;;;;;3.87;3.00;;;;;;;12.63;50.78;101768.19;5163998;28;20491;-59
2022/03/14 02:33:47;;;;;;;3.38;3.05;;;;;;;12.63;50.94;101765.56;5169065;28;20416;-55
2022/03/14 02:36:21;;;;;;;3.60;3.30;;;;;;;12.60;50.96;101770.28;5167905;28;20424;-59
2022/03/14 02:38:54;;;;;;;3.90;3.50;;;;;;;12.60;51.01;101779.06;5158453;28;20421;-55
2022/03/14 02:41:27;;;;;;;3.90;2.80;;;;;;;12.59;51.17;101777.41;5166308;28;20436;-51
2022/03/14 02:44:01;;;;;;;3.85;3.45;;;;;;;12.57;51.03;101774.06;5166880;28;20900;-54
2022/03/14 02:46:34;;;;;;;5.15;3.40;;;;;;;12.57;51.17;101778.53;5164662;28;20821;-54
2022/03/14 02:49:07;;;;;;;4.25;3.33;;;;;;;12.55;51.10;101783.97;5168330;28;20404;-52
2022/03/14 02:51:42;;;;;;;3.45;2.90;;;;;;;12.55;51.25;101785.81;5164915;28;20873;-55
2022/03/14 02:54:15;;;;;;;3.85;3.50;;;;;;;12.54;51.33;101784.09;5164910;28;20496;-57
2022/03/14 02:56:47;;;;;;;4.78;3.58;;;;;;;12.54;51.33;101795.56;5166278;28;20443;-58
2022/03/14 02:59:20;;;;;;;3.15;2.85;;;;;;;12.46;51.35;101792.75;5169171;28;20509;-54
2022/03/14 03:01:53;;;;;;;4.32;3.40;;;;;;;12.52;51.34;101834.59;5164152;28;20754;-56
2022/03/14 03:04:25;;;;;;;5.23;3.73;;;;;;;12.53;51.58;101820.38;5168206;28;20433;-55
2022/03/14 03:07:00;;;;;;;4.25;3.72;;;;;;;12.47;51.58;101810.31;5166371;28;20428;-58
2022/03/14 03:09:32;;;;;;;5.50;3.88;;;;;;;12.42;51.51;101804.63;5168246;28;20492;-58
2022/03/14 03:12:08;;;;;;;5.28;3.70;;;;;;;12.49;51.66;101818.16;5166620;28;20413;-56
2022/03/14 03:14:41;;;;;;;3.47;3.10;;;;;;;12.39;51.70;101807.56;5169782;28;20435;-58
2022/03/14 03:17:13;;;;;;;3.97;3.50;;;;;;;12.41;51.51;101832.06;5167258;28;20471;-56
2022/03/14 03:19:45;;;;;;;4.18;3.78;;;;;;;12.45;51.66;101825.53;5164076;28;20475;-56
2022/03/14 03:22:19;;;;;;;5.22;4.38;;;;;;;12.44;51.83;101826.50;5166175;28;20480;-56
2022/03/14 03:24:52;;;;;;;5.13;4.47;;;;;;;12.45;51.66;101839.63;5165547;28;20428;-55
2022/03/14 03:27:24;;;;;;;5.85;4.50;;;;;;;12.42;51.82;101839.91;5166934;28;20508;-57
2022/03/14 03:29:57;;;;;;;5.10;4.60;;;;;;;12.40;51.85;101846.31;5163224;28;20420;-56
2022/03/14 03:32:29;;;;;;;6.20;5.60;;;;;;;12.36;52.09;101850.22;5156318;28;20505;-56
2022/03/14 03:35:01;;;;;;;6.00;5.45;;;;;;;12.34;52.17;101863.56;5166825;28;20540;-56
2022/03/14 03:37:35;;;;;;;7.57;5.40;;;;;;;12.33;52.25;101859.25;5164156;28;20421;-55
2022/03/14 03:40:09;;;;;;;8.75;7.15;;;;;;;12.27;52.36;101864.28;5165889;28;20955;-56
2022/03/14 03:42:42;;;;;;;8.57;7.67;;;;;;;12.22;52.53;101864.66;5165623;28;20439;-57
2022/03/14 03:45:14;;;;;;;8.93;8.02;;;;;;;12.14;52.59;101862.69;5163767;28;20751;-56
2022/03/14 03:47:46;;;;;;;9.63;8.52;;;;;;;12.18;52.71;101879.16;5166267;28;20424;-53
2022/03/14 03:50:19;;;;;;;11.05;9.90;;;;;;;12.10;52.92;101881.63;5166306;28;20528;-57
2022/03/14 03:52:53;;;;;;;10.27;9.27;;;;;;;12.05;53.09;101873.22;5166168;28;20424;-59
2022/03/14 03:55:25;;;;;;;11.07;9.98;;;;;;;12.00;53.25;101882.44;5166958;28;20499;-55
2022/03/14 03:57:58;;;;;;;10.43;9.32;;;;;;;12.00;53.30;101885.06;5164492;28;20408;-52
2022/03/14 04:00:30;;;;;;;9.95;8.95;;;;;;;12.02;53.28;101889.41;5163064;28;20500;-58
2022/03/14 04:03:03;;;;;;;10.90;9.40;;;;;;;11.82;53.72;101861.97;5166065;28;20427;-50
2022/03/14 04:05:39;;;;;;;11.50;9.90;;;;;;;11.97;53.60;101887.97;5165771;28;20472;-55
2022/03/14 04:08:13;;;;;;;10.20;8.98;;;;;;;11.96;53.84;101893.44;5164724;28;20507;-53
2022/03/14 04:10:53;;;;;;;12.20;10.90;;;;;;;11.95;53.87;101892.59;5163200;28;20427;-59
2022/03/14 04:13:26;;;;;;;12.73;10.98;;;;;;;11.98;54.04;101904.69;5153756;28;20835;-52
2022/03/14 04:15:59;;;;;;;11.82;10.63;;;;;;;11.98;54.04;101905.56;5165537;28;20913;-55
2022/03/14 04:18:32;;;;;;;11.88;10.50;;;;;;;12.01;54.12;101909.72;5165207;28;20467;-53
2022/03/14 04:21:04;;;;;;;12.63;11.43;;;;;;;11.96;54.26;101904.84;5161850;28;20496;-57
2022/03/14 04:23:38;;;;;;;13.57;12.18;;;;;;;11.97;54.45;101911.81;5165071;28;20413;-55
2022/03/14 04:26:11;;;;;;;13.07;11.70;;;;;;;11.86;54.46;101901.34;5166406;28;20413;-51
2022/03/14 04:28:43;;;;;;;14.65;13.15;;;;;;;11.98;54.65;101920.59;5166447;28;20497;-55
2022/03/14 04:31:16;;;;;;;15.73;13.48;;;;;;;11.95;54.76;101932.31;5162150;28;20424;-54
2022/03/14 04:33:49;;;;;;;14.90;13.00;;;;;;;11.87;54.92;101929.47;5168896;28;20923;-53
2022/03/14 04:36:21;;;;;;;15.05;13.55;;;;;;;11.93;54.92;101939.53;5168692;28;20920;-55
2022/03/14 04:38:55;;;;;;;16.65;14.07;;;;;;;11.88;55.35;101941.72;5168404;28;20412;-51
2022/03/14 04:41:27;;;;;;;16.45;14.75;;;;;;;11.87;55.23;101950.66;5172270;28;20511;-52
2022/03/14 04:44:00;;;;;;;17.75;14.70;;;;;;;11.84;55.20;101950.03;5169442;28;20519;-54
2022/03/14 04:46:32;;;;;;;17.45;15.13;;;;;;;11.84;55.64;101955.34;5161563;28;20960;-54
2022/03/14 04:49:05;;;;;;;18.50;15.65;;;;;;;11.84;55.51;101966.75;5171362;28;22150;-55
2022/03/14 04:51:38;;;;;;;19.35;16.77;;;;;;;11.82;55.45;101960.75;5169130;28;20415;-54
2022/03/14 04:54:12;;;;;;;21.83;19.50;;;;;;;11.85;55.70;101970.28;5169455;28;20478;-52
2022/03/14 04:56:44;;;;;;;26.88;23.73;;;;;;;11.84;55.80;101971.22;5166756;28;20499;-56
2022/03/14 04:59:17;;;;;;;30.25;24.42;;;;;;;11.84;55.90;101981.81;5168799;28;20448;-60
2022/03/14 05:01:50;;;;;;;31.43;26.07;;;;;;;11.82;55.84;101983.72;5168494;28;20523;-52
2022/03/14 05:04:22;;;;;;;29.05;23.90;;;;;;;11.77;56.15;101992.06;5170156;28;20511;-51
2022/03/14 05:06:56;;;;;;;34.35;24.90;;;;;;;11.69;56.06;101999.81;5169905;28;20499;-53
2022/03/14 05:09:29;;;;;;;32.72;25.30;;;;;;;11.76;56.22;101990.38;5169577;28;20429;-58
2022/03/14 05:12:02;;;;;;;33.72;25.30;;;;;;;11.71;56.34;101987.28;5166276;28;20503;-58
2022/03/14 05:14:35;;;;;;;36.53;25.42;;;;;;;11.70;56.50;101997.00;5167355;28;20421;-51
2022/03/14 05:17:08;;;;;;;31.95;23.17;;;;;;;11.65;56.80;102003.69;5167968;28;20417;-54
2022/03/14 05:19:41;;;;;;;29.55;23.13;;;;;;;11.61;56.77;102018.13;5167454;28;20491;-54
2022/03/14 05:22:14;;;;;;;29.38;21.85;;;;;;;11.61;56.78;102018.97;5167199;28;20403;-52
2022/03/14 05:24:48;;;;;;;27.05;21.60;;;;;;;11.58;56.95;102029.78;5167172;28;20412;-55
2022/03/14 05:27:20;;;;;;;26.48;19.30;;;;;;;11.59;56.91;102035.94;5168354;28;20901;-52
2022/03/14 05:29:53;;;;;;;28.63;18.77;;;;;;;11.57;56.98;102038.72;5168504;28;20429;-55
2022/03/14 05:32:25;;;;;;;26.50;17.48;;;;;;;11.55;57.19;102051.22;5169765;28;20463;-51
2022/03/14 05:34:58;;;;;;;25.27;14.45;;;;;;;11.48;57.34;102045.59;5166104;28;20565;-54
2022/03/14 05:37:33;;;;;;;20.95;13.63;;;;;;;11.34;57.58;102048.53;5166680;28;20500;-56
2022/03/14 05:40:10;;;;;;;20.88;11.57;;;;;;;11.39;57.58;102056.09;5167476;28;20440;-56
2022/03/14 05:42:45;;;;;;;21.80;11.70;;;;;;;11.35;57.83;102060.78;5169395;28;20487;-51
2022/03/14 05:45:21;;;;;;;17.88;9.38;;;;;;;11.34;57.47;102071.50;5163376;28;20412;-55
2022/03/14 05:47:53;;;;;;;21.08;9.10;;;;;;;11.36;57.67;102077.50;5165374;28;20420;-54
2022/03/14 05:50:26;;;;;;;14.85;7.97;;;;;;;11.37;57.78;102082.69;5168134;28;20903;-54
2022/03/14 05:52:59;;;;;;;18.30;7.30;;;;;;;11.37;57.63;102085.31;5169997;28;20436;-51
2022/03/14 05:55:32;;;;;;;16.63;7.50;;;;;;;11.30;57.74;102078.84;5187926;28;20519;-51
2022/03/14 05:58:07;;;;;;;19.83;6.75;;;;;;;11.34;57.80;102090.88;5189809;28;20454;-54
2022/03/14 06:00:40;;;;;;;18.08;5.93;;;;;;;11.31;57.66;102094.59;5187803;28;20411;-51
2022/03/14 06:03:13;;;;;;;15.60;6.03;;;;;;;11.30;57.74;102094.69;5188999;28;20507;-51
2022/03/14 06:05:47;;;;;;;21.38;5.90;;;;;;;11.23;57.75;102093.53;5182635;28;20819;-57
2022/03/14 06:08:20;;;;;;;12.95;5.63;;;;;;;11.24;57.92;102113.69;5187688;28;20450;-51
2022/03/14 06:10:54;;;;;;;16.13;4.50;;;;;;;11.22;57.90;102107.72;5188869;28;20507;-51
2022/03/14 06:13:27;;;;;;;12.98;4.50;;;;;;;11.25;57.88;102115.41;5183780;28;20449;-52
2022/03/14 06:15:59;;;;;;;18.08;5.75;;;;;;;11.25;57.85;102120.69;5188620;28;20575;-51
2022/03/14 06:18:32;;;;;;;14.95;4.60;;;;;;;11.26;58.08;102117.91;5185016;28;20427;-53
2022/03/14 06:21:04;;;;;;;13.85;4.28;;;;;;;11.27;58.05;102130.19;5189970;28;20537;-51
2022/03/14 06:23:37;;;;;;;13.60;4.93;;;;;;;11.24;58.05;102134.84;5187038;28;20433;-54
2022/03/14 06:26:11;;;;;;;13.45;4.55;;;;;;;11.22;58.06;102135.00;5186210;28;20426;-56
2022/03/14 06:28:43;;;;;;;14.33;4.97;;;;;;;11.20;58.08;102136.06;5183670;28;20886;-53
2022/03/14 06:31:16;;;;;;;19.20;4.60;;;;;;;11.26;57.90;102164.69;5183339;28;20475;-57
2022/03/14 06:33:49;;;;;;;12.27;4.20;;;;;;;11.27;58.00;102169.00;5185874;28;20440;-56
2022/03/14 06:36:21;;;;;;;19.30;5.00;;;;;;;11.29;58.05;102178.50;5181850;28;20477;-52
2022/03/14 06:38:55;;;;;;;11.45;4.13;;;;;;;11.20;57.84;102168.66;5199744;28;20406;-55
2022/03/14 06:41:29;;;;;;;19.73;4.50;;;;;;;11.05;57.92;102154.00;5186153;28;20509;-54
2022/03/14 06:44:02;;;;;;;11.57;3.53;;;;;;;11.00;58.13;102151.72;5188164;28;20470;-53
2022/03/14 06:46:34;;;;;;;14.15;4.97;;;;;;;11.29;58.05;102193.53;5187217;28;21170;-54
2022/03/14 06:49:06;;;;;;;9.60;3.08;;;;;;;11.30;57.90;102195.19;5189162;28;20719;-52
2022/03/14 06:51:42;;;;;;;15.40;4.05;;;;;;;11.31;57.95;102204.84;5185853;28;20838;-55
2022/03/14 06:54:15;;;;;;;15.15;4.10;;;;;;;11.29;58.02;102199.66;5169663;28;20420;-55
2022/03/14 06:56:49;;;;;;;17.33;4.13;;;;;;;11.33;57.77;102205.53;5167565;28;20892;-52
2022/03/14 06:59:22;;;;;;;16.90;4.03;;;;;;;11.37;58.02;102211.44;5167880;28;20429;-51
2022/03/14 07:01:54;;;;;;;13.93;4.15;;;;;;;11.17;58.01;102195.34;5162872;28;20855;-55
2022/03/14 07:04:27;;;;;;;14.98;4.03;;;;;;;11.45;57.66;102219.59;5164112;28;20924;-55
2022/03/14 07:06:59;;;;;;;11.67;4.10;;;;;;;11.48;57.69;102214.91;5165038;28;20521;-54
2022/03/14 07:09:32;;;;;;;18.20;5.72;;;;;;;11.50;57.79;102212.16;5162545;28;20416;-53
2022/03/14 07:12:10;;;;;;;14.02;4.85;;;;;;;11.51;57.72;102241.13;5163041;28;20534;-56
2022/03/14 07:14:43;;;;;;;14.93;5.50;;;;;;;11.53;57.59;102219.84;5164495;28;20420;-56
2022/03/14 07:17:15;;;;;;;17.35;6.25;;;;;;;11.53;57.72;102223.31;5162385;28;20885;-57
2022/03/14 07:19:48;;;;;;;17.13;7.18;;;;;;;11.55;57.73;102228.47;5164846;28;20926;-58
2022/03/14 07:22:21;;;;;;;20.85;7.55;;;;;;;11.57;57.84;102231.84;5165372;28;20428;-57
2022/03/14 07:24:53;;;;;;;18.75;7.90;;;;;;;11.61;57.64;102225.34;5166696;28;20421;-55
2022/03/14 07:27:27;;;;;;;22.60;8.73;;;;;;;11.67;57.70;102234.59;5163019;28;20437;-58
2022/03/14 07:29:59;;;;;;;21.47;9.13;;;;;;;11.67;57.57;102224.84;5161831;28;20435;-55
2022/03/14 07:32:32;;;;;;;19.90;9.68;;;;;;;11.80;57.59;102245.91;5155136;28;20433;-59
2022/03/14 07:35:05;;;;;;;23.70;10.30;;;;;;;11.88;57.54;102245.31;5164120;28;21161;-56
2022/03/14 07:37:39;;;;;;;23.42;11.25;;;;;;;11.89;57.43;102245.22;5164471;28;20512;-54
2022/03/14 07:40:14;;;;;;;24.15;11.93;;;;;;;11.83;57.62;102243.03;5162185;28;20986;-58
2022/03/14 07:42:50;;;;;;;18.23;10.88;;;;;;;11.78;57.76;102247.84;5160081;28;20936;-57
2022/03/14 07:45:24;;;;;;;20.63;12.10;;;;;;;11.76;57.61;102247.09;5161432;28;20456;-55
2022/03/14 07:47:59;;;;;;;23.73;12.32;;;;;;;11.89;57.74;102263.75;5178881;28;20426;-56
2022/03/14 07:50:31;;;;;;;22.27;12.90;;;;;;;11.98;57.67;102265.66;5161812;28;20991;-56
2022/03/14 07:53:04;;;;;;;20.98;12.30;;;;;;;12.02;57.40;102271.53;5166128;28;20417;-57
2022/03/14 07:55:37;;;;;;;19.92;12.98;;;;;;;12.11;57.32;102285.81;5163916;28;20484;-55
2022/03/14 07:58:11;;;;;;;21.02;13.15;;;;;;;12.13;57.35;102279.44;5162449;28;20817;-55
2022/03/14 08:00:43;;;;;;;21.15;13.68;;;;;;;12.14;57.34;102285.56;5162462;28;20416;-55
2022/03/14 08:03:18;;;;;;;22.60;13.60;;;;;;;12.13;57.56;102286.53;5160576;28;20876;-58
2022/03/14 08:05:53;;;;;;;23.70;14.20;;;;;;;11.85;57.57;102248.22;5164626;28;20499;-56
2022/03/14 08:08:25;;;;;;;22.27;14.13;;;;;;;12.15;57.80;102300.50;5161286;28;20796;-54
2022/03/14 08:11:01;;;;;;;20.60;13.90;;;;;;;12.19;57.56;102307.22;5162098;28;20672;-54
2022/03/14 08:13:36;;;;;;;20.73;15.18;;;;;;;12.22;57.48;102302.50;5162839;28;20550;-55
2022/03/14 08:16:09;;;;;;;18.30;13.98;;;;;;;12.37;57.44;102303.06;5158606;28;20416;-58
2022/03/14 08:18:43;;;;;;;19.50;14.77;;;;;;;12.40;57.36;102305.47;5162562;28;20495;-53
2022/03/14 08:21:16;;;;;;;20.67;15.07;;;;;;;12.58;57.22;102310.25;5159814;28;20427;-55
2022/03/14 08:23:50;;;;;;;22.60;15.80;;;;;;;12.67;57.10;102310.31;5163348;28;20424;-53
2022/03/14 08:26:23;;;;;;;23.40;16.02;;;;;;;12.76;57.09;102308.72;5154710;28;20904;-56
2022/03/14 08:28:57;;;;;;;22.63;15.98;;;;;;;12.84;57.14;102321.31;5161287;28;20421;-55
2022/03/14 08:31:31;;;;;;;21.35;14.25;;;;;;;12.93;56.81;102318.72;5165610;28;20523;-53
2022/03/14 08:34:06;;;;;;;18.23;13.63;;;;;;;12.98;56.97;102328.13;5164005;28;20949;-55
2022/03/14 08:36:40;;;;;;;20.77;13.40;;;;;;;13.00;56.93;102315.56;5174346;28;20419;-57
2022/03/14 08:39:12;;;;;;;20.27;13.20;;;;;;;13.09;57.11;102326.22;5172972;28;20421;-57
2022/03/14 08:41:45;;;;;;;19.20;13.10;;;;;;;12.80;56.74;102267.72;5160707;28;20502;-55
2022/03/14 08:44:19;;;;;;;18.40;12.88;;;;;;;13.34;56.76;102334.78;5162440;28;20421;-55
2022/03/14 08:46:51;;;;;;;21.92;13.00;;;;;;;13.38;56.71;102342.38;5162722;28;20416;-57
2022/03/14 08:49:24;;;;;;;18.10;12.48;;;;;;;13.42;56.66;102342.13;5149210;28;20462;-54
2022/03/14 08:51:56;;;;;;;17.17;12.67;;;;;;;13.42;56.66;102347.41;5162958;28;20443;-56
2022/03/14 08:54:29;;;;;;;16.98;13.20;;;;;;;13.45;56.48;102344.50;5171090;28;20427;-55
2022/03/14 08:57:01;;;;;;;20.10;13.27;;;;;;;13.61;56.31;102350.16;5180814;28;20506;-58
2022/03/14 08:59:35;;;;;;;22.90;14.10;;;;;;;13.70;56.24;102365.28;5183273;28;20541;-54
2022/03/14 09:02:09;;;;;;;19.90;13.50;;;;;;;13.71;56.18;102359.00;5178082;28;20518;-52
2022/03/14 09:04:42;;;;;;;21.55;13.63;;;;;;;13.71;56.21;102369.63;5180007;28;20427;-55
2022/03/14 09:07:26;;;;;;;21.38;14.32;;;;;;;13.72;56.05;102370.47;5180724;28;20414;-55
2022/03/14 09:10:03;;;;;;;21.65;14.45;;;;;;;13.66;55.94;102366.53;5181515;28;20425;-52
2022/03/14 09:12:38;;;;;;;21.98;15.27;;;;;;;13.68;55.85;102380.50;5174227;28;20430;-53
2022/03/14 09:15:13;;;;;;;21.80;15.48;;;;;;;13.75;55.78;102387.00;5181702;28;20748;-53
2022/03/14 09:17:50;;;;;;;22.70;15.48;;;;;;;13.76;55.95;102388.66;5173931;28;20408;-58
2022/03/14 09:20:25;;;;;;;23.38;15.98;;;;;;;13.84;55.85;102391.50;5189439;28;20414;-53
2022/03/14 09:22:58;;;;;;;24.77;14.90;;;;;;;13.95;55.73;102392.38;5198277;28;20496;-54
2022/03/14 09:25:31;;;;;;;27.45;15.40;;;;;;;13.97;55.66;102395.75;5198734;28;20435;-53
2022/03/14 09:28:04;;;;;;;25.33;15.23;;;;;;;13.95;55.83;102384.41;5154062;28;20955;-56
2022/03/14 09:30:38;;;;;;;23.33;15.07;;;;;;;14.17;55.57;102397.47;5188556;28;20433;-55
2022/03/14 09:33:10;;;;;;;21.63;14.25;;;;;;;14.27;55.24;102400.16;5199052;28;20405;-56
2022/03/14 09:35:43;;;;;;;24.02;15.32;;;;;;;14.12;55.35;102417.44;5195114;28;20876;-56
2022/03/14 09:38:17;;;;;;;27.67;14.77;;;;;;;14.22;55.27;102421.84;5184526;28;20496;-60
2022/03/14 09:40:51;;;;;;;21.13;13.50;;;;;;;14.32;55.29;102424.53;5180877;28;21019;-53
2022/03/14 09:43:26;;;;;;;21.60;13.05;;;;;;;14.36;55.23;102422.44;5188649;28;20430;-54
2022/03/14 09:46:01;;;;;;;19.75;12.18;;;;;;;14.00;54.98;102352.97;5188321;28;20909;-56
2022/03/14 09:48:39;;;;;;;19.63;13.32;;;;;;;14.41;54.88;102396.28;5176503;28;20441;-55
2022/03/14 09:51:13;;;;;;;19.90;12.95;;;;;;;14.74;54.74;102427.00;5183896;28;20424;-52
2022/03/14 09:53:46;;;;;;;28.60;12.18;;;;;;;14.84;54.65;102427.03;5170929;28;20423;-56
2022/03/14 09:56:19;;;;;;;26.08;12.13;;;;;;;14.95;54.48;102438.38;5193201;28;20420;-56
2022/03/14 09:58:52;;;;;;;21.67;11.50;;;;;;;15.07;54.36;102447.06;5187566;28;20435;-56
2022/03/14 10:01:27;;;;;;;25.43;11.67;;;;;;;15.09;54.27;102447.75;5187815;28;20486;-56
2022/03/14 10:03:59;;;;;;;21.42;11.43;;;;;;;14.93;54.14;102410.25;5186845;28;20439;-55
2022/03/14 10:06:32;;;;;;;24.02;11.07;;;;;;;15.26;53.85;102442.72;5192680;28;20413;-55
2022/03/14 10:09:05;;;;;;;21.17;10.68;;;;;;;15.28;53.76;102462.06;5178335;28;20419;-55
2022/03/14 10:11:37;;;;;;;21.00;11.10;;;;;;;15.25;53.86;102451.69;5194426;28;20897;-57
2022/03/14 10:14:16;;;;;;;23.73;11.32;;;;;;;15.32;53.67;102463.44;5189641;28;20424;-57
2022/03/14 10:16:56;;;;;;;20.75;10.38;;;;;;;15.58;53.31;102469.88;5195380;28;20502;-55
2022/03/14 10:19:34;;;;;;;18.30;9.90;;;;;;;15.70;53.03;102467.06;5208364;28;20459;-56
2022/03/14 10:22:18;;;;;;;18.00;9.52;;;;;;;15.76;52.96;102471.81;5181724;28;20989;-59
2022/03/14 10:25:02;;;;;;;18.30;8.43;;;;;;;15.85;52.83;102482.44;5183380;28;20418;-55
2022/03/14 10:27:37;;;;;;;17.98;8.52;;;;;;;15.90;52.48;102474.84;5184562;28;20925;-55
2022/03/14 10:30:24;;;;;;;19.90;9.30;;;;;;;16.01;52.45;102476.53;5178728;28;20411;-53
2022/03/14 10:33:14;;;;;;;24.35;9.57;;;;;;;16.17;52.19;102475.91;5181732;28;20561;-53
2022/03/14 10:35:47;;;;;;;23.05;9.13;;;;;;;16.17;52.17;102477.72;5175105;28;20430;-60
2022/03/14 10:38:19;;;;;;;20.33;8.63;;;;;;;16.31;51.87;102478.06;5185303;28;20433;-58
2022/03/14 10:40:52;;;;;;;23.00;9.13;;;;;;;16.41;51.72;102486.00;5181521;28;20522;-56
2022/03/14 10:43:27;;;;;;;18.60;9.27;;;;;;;16.41;51.56;102485.19;5179469;28;20819;-56
2022/03/14 10:46:03;;;;;;;25.63;9.07;;;;;;;16.49;51.42;102491.47;5179760;28;20511;-55
2022/03/14 10:48:39;;;;;;;25.30;8.40;;;;;;;16.53;51.09;102506.16;5181599;28;20427;-54
2022/03/14 10:51:14;;;;;;;20.50;8.25;;;;;;;16.43;51.31;102502.72;5181359;28;20549;-57
2022/03/14 10:53:48;;;;;;;18.50;8.03;;;;;;;16.42;51.28;102506.38;5185285;28;20864;-55
2022/03/14 10:56:28;;;;;;;22.70;8.65;;;;;;;16.44;51.09;102511.56;5180476;28;20427;-55
2022/03/14 10:59:08;;;;;;;24.17;7.38;;;;;;;16.35;50.97;102506.13;5182675;28;20418;-54
2022/03/14 11:01:59;;;;;;;26.17;7.43;;;;;;;16.46;50.71;102518.41;5181834;28;20422;-54
2022/03/14 11:04:42;;;;;;;20.95;6.68;;;;;;;16.45;50.61;102519.41;5183303;28;20435;-56
2022/03/14 11:07:15;;;;;;;25.00;6.90;;;;;;;16.43;50.49;102501.88;5179214;28;20415;-54
2022/03/14 11:09:50;;;;;;;22.55;6.10;;;;;;;16.54;50.21;102517.69;5175383;28;20457;-54
2022/03/14 11:12:25;;;;;;;20.10;6.10;;;;;;;16.62;49.98;102515.09;5182253;28;20433;-52
2022/03/14 11:15:00;;;;;;;21.83;6.15;;;;;;;16.80;49.54;102512.53;5181897;28;20435;-57
2022/03/14 11:17:34;;;;;;;16.43;5.73;;;;;;;16.89;49.40;102514.28;5179430;28;20431;-56
2022/03/14 11:20:10;;;;;;;15.27;5.50;;;;;;;16.78;49.45;102511.81;5177318;28;20875;-58
2022/03/14 11:22:44;;;;;;;22.20;6.50;;;;;;;16.88;49.05;102517.97;5182901;28;20494;-55
2022/03/14 11:25:17;;;;;;;19.65;5.95;;;;;;;17.09;48.87;102514.16;5177435;28;20419;-58
2022/03/14 11:27:53;;;;;;;16.77;5.53;;;;;;;17.05;48.59;102519.78;5181188;28;20937;-56
2022/03/14 11:30:27;;;;;;;18.30;5.18;;;;;;;17.01;48.63;102521.09;5174001;28;20442;-57
2022/03/14 11:33:00;;;;;;;14.52;5.22;;;;;;;17.00;48.48;102534.56;5173755;28;20419;-56
2022/03/14 11:35:34;;;;;;;25.90;6.43;;;;;;;16.96;48.26;102542.03;5173466;28;20577;-58
2022/03/14 11:38:08;;;;;;;18.43;5.77;;;;;;;16.94;48.14;102544.03;5178650;28;20502;-60
2022/03/14 11:40:41;;;;;;;17.50;6.03;;;;;;;16.86;48.21;102541.28;5173202;28;20445;-55
2022/03/14 11:43:14;;;;;;;18.15;6.07;;;;;;;16.93;47.99;102545.00;5177886;28;20411;-56
2022/03/14 11:45:48;;;;;;;17.63;6.47;;;;;;;17.01;47.91;102547.78;5173683;28;20880;-57